createdAt,value
2019-02-12T00:02:31.849Z,979.95
2019-02-12T00:07:31.876Z,980.06
2019-02-12T00:12:31.870Z,980.09
2019-02-12T00:17:31.855Z,980.25
2019-02-12T00:22:31.856Z,980.37
2019-02-12T00:27:31.845Z,980.33
2019-02-12T00:32:31.859Z,980.36
2019-02-12T00:37:31.870Z,980.23
2019-02-12T00:42:31.861Z,980.41
2019-02-12T00:47:31.867Z,980.32
2019-02-12T00:52:31.876Z,980.43
2019-02-12T00:57:32.178Z,980.54
2019-02-12T01:02:31.857Z,980.55
2019-02-12T01:07:32.130Z,980.62
2019-02-12T01:12:31.893Z,980.53
2019-02-12T01:17:31.881Z,980.62
2019-02-12T01:22:31.868Z,980.56
2019-02-12T01:27:32.307Z,980.57
2019-02-12T01:32:31.848Z,980.54
2019-02-12T01:37:31.900Z,980.54
2019-02-12T01:42:32.242Z,980.59
2019-02-12T18:04:08.144Z,990.01
2019-02-12T18:09:08.144Z,990.11
2019-02-12T18:14:08.726Z,990.16
2019-02-12T18:19:08.902Z,990.08
2019-02-12T18:24:08.136Z,990.11
2019-02-12T18:29:08.968Z,990.31
2019-02-12T18:34:08.697Z,990.32
2019-02-12T18:39:08.188Z,990.44
2019-02-12T18:44:08.148Z,990.41
2019-02-12T18:49:08.650Z,990.55
2019-02-12T18:54:08.183Z,990.56
2019-02-12T18:59:08.363Z,990.63
2019-02-12T19:04:08.235Z,990.63
2019-02-12T19:09:08.184Z,990.64
2019-02-12T19:14:08.350Z,990.64
2019-02-12T19:19:08.576Z,990.69
2019-02-12T19:24:08.193Z,990.67
2019-02-12T19:29:08.186Z,990.67
2019-02-12T19:34:08.228Z,990.78
2019-02-12T19:39:08.175Z,990.81
2019-02-12T19:44:08.721Z,990.92
2019-02-12T19:49:08.350Z,990.89
2019-02-12T19:54:08.230Z,991.00
2019-02-12T19:59:08.603Z,991.05
2019-02-12T20:04:08.211Z,991.09
2019-02-12T20:09:08.708Z,991.21
2019-02-12T20:14:08.729Z,991.25
2019-02-12T20:19:08.210Z,991.29
2019-02-12T20:24:08.587Z,991.43
2019-02-12T20:29:08.586Z,991.60
2019-02-12T20:34:08.613Z,991.76
2019-02-12T20:39:08.226Z,991.75
2019-02-12T20:44:08.676Z,991.86
2019-02-12T20:49:08.234Z,991.77
2019-02-12T20:54:08.224Z,991.80
2019-02-12T20:59:08.253Z,991.92
2019-02-12T21:04:08.230Z,991.90
2019-02-12T21:09:08.255Z,991.91
2019-02-12T21:14:08.259Z,992.01
2019-02-12T21:19:08.682Z,991.98
2019-02-12T21:24:08.711Z,992.07
2019-02-12T21:29:08.301Z,992.08
2019-02-12T21:34:08.614Z,992.12
2019-02-12T21:39:08.257Z,992.15
2019-02-12T21:44:08.293Z,992.25
2019-02-12T21:49:08.670Z,992.25
2019-02-12T21:54:08.256Z,992.19
2019-02-12T21:59:08.245Z,992.28
2019-02-12T22:04:08.253Z,992.40
2019-02-12T22:09:08.267Z,992.40
2019-02-12T22:14:08.607Z,992.51
2019-02-12T22:19:08.267Z,992.48
2019-02-12T22:24:08.669Z,992.57
2019-02-12T22:29:08.253Z,992.57
2019-02-12T22:34:08.243Z,992.53
2019-02-12T22:39:08.584Z,992.66
2019-02-12T22:44:08.278Z,992.76
2019-02-12T22:49:08.246Z,992.78
2019-02-12T22:54:08.267Z,992.78
2019-02-12T22:59:08.267Z,992.89
2019-02-12T23:04:08.265Z,992.98
2019-02-12T23:09:08.271Z,992.93
2019-02-12T23:14:08.314Z,992.93
2019-02-12T23:19:08.291Z,992.91
2019-02-12T23:24:08.310Z,993.04
2019-02-12T23:29:08.675Z,993.13
2019-02-12T23:34:08.697Z,993.10
2019-02-12T23:39:08.318Z,993.12
2019-02-12T23:44:08.329Z,993.20
2019-02-12T23:49:08.317Z,993.15
2019-02-12T23:54:08.288Z,993.10
2019-02-12T23:59:08.339Z,993.17
